Time;durP1;ratioP1;P1;durP2;ratioP2;P2;SDS_P1;SDS_P2;PMS_P1;PMS_P2;Temp;Humidity;BMP_temperature;BMP_pressure;BME280_temperature;BME280_humidity;BME280_pressure;Samples;Min_cycle;Max_cycle;Signal;HPM_P1;HPM_P2
2022/02/26 00:01:30;;;;;;;4.73;2.10;;;;;;;5.01;63.29;96646.03;5032286;28;20657;-81
2022/02/26 00:03:58;;;;;;;4.17;1.63;;;;;;;4.99;63.86;96642.00;5031348;28;20222;-81
2022/02/26 00:06:25;;;;;;;4.60;1.70;;;;;;;5.02;63.79;96645.13;5031963;28;20597;-80
2022/02/26 00:08:51;;;;;;;4.67;2.00;;;;;;;5.06;63.51;96640.59;5032101;28;20682;-81
2022/02/26 00:11:17;;;;;;;3.37;1.83;;;;;;;4.96;63.66;96643.03;5031545;28;20190;-81
2022/02/26 00:13:44;;;;;;;4.37;2.00;;;;;;;4.94;63.78;96646.63;5032079;28;20280;-81
2022/02/26 00:16:10;;;;;;;2.93;1.90;;;;;;;4.97;63.97;96657.44;5031714;28;20248;-81
2022/02/26 00:18:37;;;;;;;3.77;1.77;;;;;;;4.90;63.75;96655.44;5032347;28;20546;-81
2022/02/26 00:21:05;;;;;;;7.63;2.30;;;;;;;4.96;63.78;96666.00;5031554;28;20195;-80
2022/02/26 00:23:31;;;;;;;4.80;2.30;;;;;;;4.88;63.96;96660.66;5032061;28;20225;-80
2022/02/26 00:25:58;;;;;;;8.43;2.37;;;;;;;4.90;64.37;96663.09;5031858;28;20214;-81
2022/02/26 00:28:24;;;;;;;3.90;1.87;;;;;;;4.93;63.78;96663.69;5032037;28;20261;-80
2022/02/26 00:30:51;;;;;;;5.30;2.00;;;;;;;4.93;63.86;96665.44;5031877;28;20217;-81
2022/02/26 00:33:17;;;;;;;5.27;2.17;;;;;;;4.80;64.28;96679.09;5031482;28;20226;-81
2022/02/26 00:35:43;;;;;;;5.73;2.13;;;;;;;4.86;63.92;96677.81;5032349;28;20213;-81
2022/02/26 00:38:11;;;;;;;4.93;2.20;;;;;;;4.95;64.23;96678.88;5031704;28;20205;-80
2022/02/26 00:40:38;;;;;;;7.10;2.17;;;;;;;4.92;64.23;96682.47;5031529;28;20240;-81
2022/02/26 00:43:05;;;;;;;4.23;2.50;;;;;;;4.94;63.89;96685.72;5031219;28;20229;-81
2022/02/26 00:45:31;;;;;;;5.23;1.97;;;;;;;4.96;64.09;96685.63;5031610;28;20224;-80
2022/02/26 00:47:58;;;;;;;6.60;2.50;;;;;;;4.81;64.08;96675.59;5033196;28;20194;-81
2022/02/26 00:50:24;;;;;;;9.87;2.20;;;;;;;4.82;64.69;96684.06;5031082;28;20207;-81
2022/02/26 00:52:52;;;;;;;4.83;2.17;;;;;;;4.59;65.42;96683.25;5031079;28;20237;-80
2022/02/26 00:55:19;;;;;;;5.23;2.60;;;;;;;4.64;64.79;96688.78;5031221;28;20559;-81
2022/02/26 00:57:46;;;;;;;5.40;2.77;;;;;;;4.60;65.28;96692.53;5031585;28;20297;-81
2022/02/26 01:00:13;;;;;;;4.37;2.27;;;;;;;4.46;66.07;96692.69;5030498;28;20241;-81
2022/02/26 01:02:39;;;;;;;3.60;2.27;;;;;;;4.53;65.91;96698.16;5030651;28;20218;-81
2022/02/26 01:05:07;;;;;;;5.87;2.73;;;;;;;4.54;65.93;96700.59;5030876;28;20222;-81
2022/02/26 01:07:33;;;;;;;3.43;2.10;;;;;;;4.59;65.72;96700.28;5031190;28;20229;-80
2022/02/26 01:10:00;;;;;;;4.30;2.23;;;;;;;4.58;66.07;96703.75;5030601;28;20662;-80
2022/02/26 01:12:28;;;;;;;5.97;2.57;;;;;;;4.65;65.42;96704.91;5031472;28;20202;-80
2022/02/26 01:14:54;;;;;;;6.43;3.00;;;;;;;4.69;65.31;96701.22;5031064;28;20226;-80
2022/02/26 01:17:20;;;;;;;4.47;2.37;;;;;;;4.75;65.30;96704.16;5031059;28;20666;-80
2022/02/26 01:19:48;;;;;;;3.07;2.00;;;;;;;4.83;64.98;96706.09;5030578;28;20217;-80
2022/02/26 01:22:15;;;;;;;5.10;2.07;;;;;;;4.77;65.41;96712.50;5030454;28;20206;-81
2022/02/26 01:24:41;;;;;;;4.53;2.67;;;;;;;4.77;65.58;96709.94;5030890;28;20638;-81
2022/02/26 01:27:08;;;;;;;3.90;2.17;;;;;;;4.81;65.36;96711.31;5031356;28;20252;-80
2022/02/26 01:29:36;;;;;;;6.10;2.40;;;;;;;4.75;65.28;96716.09;5031400;28;20187;-81
2022/02/26 01:32:04;;;;;;;2.97;2.00;;;;;;;4.58;66.32;96714.78;5030898;28;20205;-81
2022/02/26 01:34:30;;;;;;;3.80;2.43;;;;;;;4.55;65.96;96724.38;5031272;28;20280;-81
2022/02/26 01:36:56;;;;;;;7.03;2.60;;;;;;;4.54;66.17;96718.47;5031077;28;20205;-80
2022/02/26 01:39:24;;;;;;;4.40;2.50;;;;;;;4.56;66.29;96720.91;5032217;28;20229;-81
2022/02/26 01:41:51;;;;;;;4.87;2.37;;;;;;;4.48;66.63;96727.34;5034614;28;20202;-80
2022/02/26 01:44:17;;;;;;;5.13;3.00;;;;;;;4.57;66.47;96727.63;5034061;28;20218;-81
2022/02/26 01:46:45;;;;;;;3.03;2.30;;;;;;;4.60;66.29;96723.13;5034292;28;20218;-82
2022/02/26 01:49:12;;;;;;;4.40;2.60;;;;;;;4.64;65.94;96727.06;5034491;28;20202;-82
2022/02/26 01:51:39;;;;;;;6.30;2.70;;;;;;;4.63;66.48;96730.53;5033875;28;20221;-82
2022/02/26 01:54:05;;;;;;;5.13;2.60;;;;;;;4.64;66.37;96724.50;5034036;28;20229;-82
2022/02/26 01:56:33;;;;;;;4.57;2.70;;;;;;;4.68;66.10;96728.47;5034122;28;20210;-83
2022/02/26 01:58:59;;;;;;;5.30;2.30;;;;;;;4.70;66.20;96725.81;5034332;28;20195;-82
2022/02/26 02:01:26;;;;;;;4.77;2.50;;;;;;;4.68;65.72;96730.19;5033410;28;20190;-82
2022/02/26 02:03:53;;;;;;;3.70;2.30;;;;;;;4.69;65.65;96730.09;5033637;28;20222;-82
2022/02/26 02:06:21;;;;;;;3.87;2.63;;;;;;;4.76;65.44;96722.81;5033851;28;20222;-82
2022/02/26 02:08:49;;;;;;;4.63;2.37;;;;;;;4.84;65.35;96730.69;5032953;28;20279;-83
2022/02/26 02:11:16;;;;;;;4.67;2.40;;;;;;;4.83;65.27;96724.78;5033263;28;20680;-82
2022/02/26 02:13:42;;;;;;;5.20;2.40;;;;;;;4.86;65.10;96728.84;5033980;28;20226;-82
2022/02/26 02:16:09;;;;;;;6.27;2.80;;;;;;;4.82;64.94;96733.38;5033575;28;20222;-82
2022/02/26 02:18:37;;;;;;;3.70;2.20;;;;;;;4.89;64.58;96738.84;5027812;28;20318;-82
2022/02/26 02:21:05;;;;;;;4.13;2.67;;;;;;;4.84;64.68;96736.63;5033664;28;20230;-83
2022/02/26 02:23:33;;;;;;;4.60;2.60;;;;;;;4.84;64.93;96746.81;5034264;28;20544;-82
2022/02/26 02:25:59;;;;;;;4.70;2.57;;;;;;;4.84;64.75;96746.81;5034559;28;20305;-82
2022/02/26 02:28:26;;;;;;;5.70;2.13;;;;;;;4.80;65.11;96745.44;5034740;28;20190;-82
2022/02/26 02:30:52;;;;;;;2.90;2.20;;;;;;;4.82;64.96;96740.19;5033979;28;20190;-82
2022/02/26 02:33:19;;;;;;;4.33;2.67;;;;;;;4.85;64.31;96740.78;5033765;28;20238;-82
2022/02/26 02:35:46;;;;;;;4.13;2.03;;;;;;;4.84;64.88;96740.91;5034899;28;20657;-83
2022/02/26 02:38:14;;;;;;;3.53;1.90;;;;;;;4.72;64.42;96741.81;5033631;28;20198;-83
2022/02/26 02:40:44;;;;;;;3.03;2.10;;;;;;;4.53;64.86;96742.34;5033804;28;20214;-82
2022/02/26 02:43:11;;;;;;;2.80;1.90;;;;;;;4.63;64.72;96734.81;5033493;28;20288;-83
2022/02/26 02:45:38;;;;;;;4.07;2.00;;;;;;;4.68;63.70;96741.22;5027326;28;20240;-82
2022/02/26 02:48:05;;;;;;;3.50;2.00;;;;;;;4.65;64.32;96743.19;5033202;28;20751;-82
2022/02/26 02:50:32;;;;;;;4.47;2.00;;;;;;;4.66;64.12;96742.25;5034302;28;20289;-82
2022/02/26 02:52:59;;;;;;;3.17;1.90;;;;;;;4.66;63.79;96749.91;5035366;28;20230;-83
2022/02/26 02:55:26;;;;;;;3.53;1.47;;;;;;;4.66;63.64;96753.25;5035686;28;20269;-83
2022/02/26 02:57:55;;;;;;;3.93;2.00;;;;;;;4.69;63.25;96755.59;5035378;28;20259;-83
2022/02/26 03:00:22;;;;;;;4.57;1.90;;;;;;;4.73;63.56;96759.56;5035293;28;20218;-83
2022/02/26 03:02:50;;;;;;;3.60;1.90;;;;;;;4.60;63.85;96760.56;5034384;28;20202;-82
2022/02/26 03:05:18;;;;;;;4.03;2.20;;;;;;;4.67;63.98;96754.91;5035117;28;20216;-83
2022/02/26 03:07:45;;;;;;;5.37;2.00;;;;;;;4.69;64.02;96760.72;5035079;28;20202;-83
2022/02/26 03:10:11;;;;;;;3.17;2.03;;;;;;;4.79;63.66;96761.69;5034766;28;20209;-83
2022/02/26 03:12:38;;;;;;;3.90;1.90;;;;;;;4.88;63.25;96764.47;5028316;28;20220;-83
2022/02/26 03:15:07;;;;;;;2.73;1.80;;;;;;;4.85;62.99;96766.31;5034916;28;20487;-83
2022/02/26 03:17:35;;;;;;;2.47;1.60;;;;;;;4.74;63.74;96773.94;5034840;28;20198;-83
2022/02/26 03:20:01;;;;;;;5.07;2.00;;;;;;;4.64;63.74;96777.25;5035573;28;20237;-83
2022/02/26 03:22:28;;;;;;;4.60;2.17;;;;;;;4.65;64.03;96772.03;5056421;28;20660;-83
2022/02/26 03:24:54;;;;;;;4.60;2.03;;;;;;;4.74;64.16;96778.22;5047804;28;20233;-83
2022/02/26 03:27:21;;;;;;;2.90;2.00;;;;;;;4.84;63.94;96787.66;5034627;28;20214;-83
2022/02/26 03:29:47;;;;;;;5.03;2.30;;;;;;;4.92;63.77;96789.66;5034840;28;20237;-83
2022/02/26 03:32:15;;;;;;;4.03;2.57;;;;;;;4.89;64.18;96786.50;5034092;28;20665;-83
2022/02/26 03:34:42;;;;;;;4.27;1.93;;;;;;;4.92;63.85;96791.41;5033941;28;20225;-83
2022/02/26 03:37:08;;;;;;;3.53;1.97;;;;;;;5.03;63.82;96799.88;5034797;28;20198;-83
2022/02/26 03:39:35;;;;;;;2.70;2.00;;;;;;;5.08;63.63;96799.56;5034338;28;20256;-83
2022/02/26 03:42:02;;;;;;;4.27;2.50;;;;;;;5.08;63.79;96802.91;5034134;28;20204;-83
2022/02/26 03:44:30;;;;;;;4.10;2.63;;;;;;;5.13;63.69;96803.41;5033671;28;20496;-83
2022/02/26 03:46:57;;;;;;;3.30;2.40;;;;;;;5.17;63.28;96794.59;5034184;28;20198;-83
2022/02/26 03:49:26;;;;;;;3.57;2.53;;;;;;;5.22;63.38;96797.59;5034701;28;20244;-83
2022/02/26 03:51:53;;;;;;;3.87;2.50;;;;;;;5.24;63.30;96800.03;5034820;28;20190;-83
2022/02/26 03:54:20;;;;;;;3.10;2.30;;;;;;;5.29;63.29;96807.38;5033346;28;20230;-83
2022/02/26 03:56:47;;;;;;;4.67;2.10;;;;;;;5.28;63.36;96808.28;5035104;28;20213;-83
2022/02/26 03:59:13;;;;;;;3.50;2.20;;;;;;;5.28;62.88;96814.22;5034677;28;20198;-83
2022/02/26 04:01:40;;;;;;;2.57;2.10;;;;;;;5.29;63.07;96822.69;5033652;28;20222;-83
2022/02/26 04:04:06;;;;;;;5.10;2.30;;;;;;;5.29;63.48;96818.41;5033432;28;20217;-83
2022/02/26 04:06:34;;;;;;;4.73;2.30;;;;;;;5.27;63.07;96824.53;5032509;28;20218;-83
2022/02/26 04:09:03;;;;;;;5.13;2.60;;;;;;;5.24;63.67;96827.31;5034868;28;20289;-83
2022/02/26 04:11:30;;;;;;;3.47;2.53;;;;;;;5.18;64.48;96826.84;5033731;28;20680;-83
2022/02/26 04:13:56;;;;;;;2.97;2.23;;;;;;;5.11;65.42;96832.50;5033556;28;20701;-83
2022/02/26 04:16:23;;;;;;;3.57;2.50;;;;;;;5.06;66.34;96835.41;5033746;28;20225;-83
2022/02/26 04:18:49;;;;;;;5.43;2.57;;;;;;;5.02;67.28;96833.97;5034450;28;20213;-83
2022/02/26 04:21:16;;;;;;;4.50;3.00;;;;;;;4.94;68.81;96835.47;5033270;28;20276;-82
2022/02/26 04:23:43;;;;;;;5.93;3.03;;;;;;;4.90;68.72;96840.00;5033094;28;20697;-83
2022/02/26 04:26:10;;;;;;;5.90;2.87;;;;;;;4.86;68.88;96833.47;5033746;28;20218;-83
2022/02/26 04:28:36;;;;;;;6.50;2.90;;;;;;;4.89;68.89;96843.47;5032973;28;20257;-83
2022/02/26 04:31:03;;;;;;;3.87;2.57;;;;;;;4.71;69.27;96832.03;5033226;28;20198;-82
2022/02/26 04:33:29;;;;;;;5.20;2.73;;;;;;;4.64;69.63;96836.75;5033047;28;20229;-83
2022/02/26 04:35:58;;;;;;;4.23;2.90;;;;;;;4.67;69.04;96831.41;5033064;28;20217;-83
2022/02/26 04:38:24;;;;;;;4.30;2.90;;;;;;;4.70;68.98;96832.94;5033739;28;20209;-82
2022/02/26 04:40:52;;;;;;;3.27;2.87;;;;;;;4.74;68.76;96836.91;5033530;28;20218;-83
2022/02/26 04:43:19;;;;;;;4.30;2.77;;;;;;;4.78;67.90;96839.16;5032860;28;20233;-82
2022/02/26 04:45:45;;;;;;;4.03;3.10;;;;;;;4.81;68.41;96843.22;5027301;28;20229;-82
2022/02/26 04:48:12;;;;;;;4.37;2.60;;;;;;;4.84;67.67;96841.22;5032345;28;20234;-82
2022/02/26 04:50:38;;;;;;;3.03;2.73;;;;;;;4.82;68.50;96853.28;5032588;28;20253;-83
2022/02/26 04:53:05;;;;;;;4.47;2.77;;;;;;;4.85;68.30;96847.97;5032246;28;20280;-83
2022/02/26 04:55:31;;;;;;;3.87;2.70;;;;;;;4.79;68.14;96850.16;5033460;28;20237;-83
2022/02/26 04:57:59;;;;;;;5.07;2.90;;;;;;;4.81;68.57;96850.88;5032416;28;20198;-83
2022/02/26 05:00:26;;;;;;;4.73;2.60;;;;;;;4.89;67.99;96853.66;5031383;28;20226;-82
2022/02/26 05:02:53;;;;;;;3.57;2.57;;;;;;;4.87;67.58;96852.97;5032180;28;20298;-82
2022/02/26 05:05:19;;;;;;;4.80;2.93;;;;;;;4.88;67.83;96851.22;5032923;28;20218;-83
2022/02/26 05:07:46;;;;;;;4.43;3.37;;;;;;;4.87;67.70;96858.06;5026325;28;20205;-83
2022/02/26 05:10:13;;;;;;;3.47;3.13;;;;;;;4.88;68.17;96861.44;5032214;28;20198;-83
2022/02/26 05:12:39;;;;;;;4.00;2.70;;;;;;;4.91;67.55;96869.69;5032260;28;20201;-82
2022/02/26 05:15:08;;;;;;;5.67;2.90;;;;;;;4.91;67.78;96867.13;5036112;28;20245;-83
2022/02/26 05:17:34;;;;;;;3.83;2.90;;;;;;;4.89;68.08;96866.44;5035355;28;20201;-83
2022/02/26 05:20:01;;;;;;;3.70;2.80;;;;;;;4.94;68.12;96873.75;5035877;28;20214;-81
2022/02/26 05:22:27;;;;;;;4.13;2.87;;;;;;;4.96;67.42;96864.25;5036639;28;20198;-82
2022/02/26 05:24:54;;;;;;;5.90;2.70;;;;;;;4.99;67.54;96866.59;5035860;28;20230;-82
2022/02/26 05:27:20;;;;;;;5.40;2.60;;;;;;;5.01;67.02;96872.38;5036445;28;20202;-82
2022/02/26 05:29:46;;;;;;;4.13;2.73;;;;;;;5.04;66.86;96872.97;5037007;28;20201;-82
2022/02/26 05:32:14;;;;;;;4.63;3.00;;;;;;;5.00;67.01;96873.34;5035762;28;20195;-82
2022/02/26 05:34:41;;;;;;;4.50;2.63;;;;;;;4.96;67.73;96871.91;5035659;28;20222;-82
2022/02/26 05:37:07;;;;;;;4.77;2.40;;;;;;;4.98;67.14;96881.09;5035858;28;20201;-82
2022/02/26 05:39:34;;;;;;;3.50;2.80;;;;;;;4.94;67.49;96889.06;5035808;28;20197;-82
2022/02/26 05:42:00;;;;;;;5.53;3.00;;;;;;;4.93;67.67;96882.34;5035135;28;20221;-82
2022/02/26 05:44:27;;;;;;;3.17;2.73;;;;;;;4.95;67.17;96888.97;5035110;28;20226;-82
2022/02/26 05:46:53;;;;;;;4.33;3.07;;;;;;;4.84;68.21;96902.47;5035788;28;20221;-82
2022/02/26 05:49:23;;;;;;;3.77;2.70;;;;;;;4.82;68.34;96895.84;5035979;28;20198;-82
2022/02/26 05:51:50;;;;;;;4.10;2.70;;;;;;;4.89;67.97;96907.25;5029322;28;20194;-82
2022/02/26 05:54:16;;;;;;;3.43;2.53;;;;;;;4.94;68.03;96904.38;5035286;28;20308;-82
2022/02/26 05:56:42;;;;;;;5.73;2.70;;;;;;;4.92;68.07;96901.94;5034747;28;20226;-82
2022/02/26 05:59:09;;;;;;;6.70;2.50;;;;;;;4.94;67.72;96904.38;5033547;28;20208;-81
2022/02/26 06:01:35;;;;;;;3.73;2.90;;;;;;;4.90;68.21;96911.44;5033631;28;20225;-82
2022/02/26 06:04:02;;;;;;;3.20;2.57;;;;;;;4.88;67.88;96915.84;5033184;28;20233;-82
2022/02/26 06:06:30;;;;;;;4.83;2.70;;;;;;;4.87;67.81;96916.75;5033625;28;20225;-82
2022/02/26 06:08:56;;;;;;;4.17;2.80;;;;;;;4.91;67.90;96915.63;5033727;28;20198;-82
2022/02/26 06:11:23;;;;;;;3.83;2.77;;;;;;;4.94;67.91;96922.25;5033248;28;20796;-82
2022/02/26 06:13:50;;;;;;;4.90;2.90;;;;;;;4.95;67.44;96922.16;5033050;28;20226;-83
2022/02/26 06:16:16;;;;;;;6.97;3.47;;;;;;;5.00;67.53;96926.94;5033547;28;20222;-82
2022/02/26 06:18:43;;;;;;;6.67;2.83;;;;;;;4.97;67.62;96924.59;5033818;28;20194;-81
2022/02/26 06:21:09;;;;;;;3.50;2.50;;;;;;;4.99;67.04;96928.66;5044126;28;20213;-81
2022/02/26 06:23:37;;;;;;;4.80;2.93;;;;;;;4.95;67.13;96927.25;5032256;28;20233;-82
2022/02/26 06:26:03;;;;;;;4.70;2.73;;;;;;;4.97;67.29;96940.72;5039522;28;20213;-82
2022/02/26 06:28:30;;;;;;;3.73;2.90;;;;;;;4.94;67.16;96940.94;5038493;28;20210;-82
2022/02/26 06:30:57;;;;;;;6.57;3.47;;;;;;;4.80;67.96;96946.19;5033345;28;20195;-81
2022/02/26 06:33:23;;;;;;;7.53;3.20;;;;;;;4.72;68.44;96943.34;5032823;28;20249;-82
2022/02/26 06:35:50;;;;;;;5.83;3.43;;;;;;;4.77;68.19;96956.63;5026733;28;20218;-81
2022/02/26 06:38:16;;;;;;;6.27;3.30;;;;;;;4.79;67.65;96953.03;5031419;28;20198;-82
2022/02/26 06:40:44;;;;;;;4.47;2.93;;;;;;;4.79;67.58;96949.66;5031625;28;20685;-82
2022/02/26 06:43:11;;;;;;;4.83;2.90;;;;;;;4.75;67.85;96951.63;5032516;28;20257;-83
2022/02/26 06:45:37;;;;;;;4.80;3.13;;;;;;;4.78;67.38;96955.69;5032575;28;20226;-81
2022/02/26 06:48:04;;;;;;;5.17;3.07;;;;;;;4.76;67.55;96957.53;5032894;28;20256;-82
2022/02/26 06:50:31;;;;;;;6.37;3.30;;;;;;;4.83;67.41;96961.28;5032515;28;20699;-81
2022/02/26 06:52:57;;;;;;;6.60;3.50;;;;;;;4.90;67.26;96965.03;5032275;28;20234;-82
2022/02/26 06:55:24;;;;;;;13.80;8.57;;;;;;;4.88;66.83;96960.94;5032722;28;20221;-82
2022/02/26 06:57:52;;;;;;;18.70;14.17;;;;;;;4.89;66.97;96968.50;5032724;28;20195;-82
2022/02/26 07:00:19;;;;;;;7.90;4.90;;;;;;;4.78;67.99;96979.47;5032605;28;20291;-81
2022/02/26 07:02:46;;;;;;;6.10;3.70;;;;;;;4.80;67.94;96980.19;5033469;28;20218;-81
2022/02/26 07:05:12;;;;;;;8.27;3.43;;;;;;;4.82;67.35;96985.16;5034208;28;20218;-82
2022/02/26 07:07:38;;;;;;;6.87;3.60;;;;;;;4.81;68.07;96991.22;5033375;28;20739;-82
2022/02/26 07:10:06;;;;;;;5.27;3.20;;;;;;;4.83;68.27;96991.88;5032986;28;20198;-82
2022/02/26 07:12:33;;;;;;;4.90;3.63;;;;;;;4.83;68.37;96992.69;5033183;28;20541;-81
2022/02/26 07:15:01;;;;;;;6.93;3.80;;;;;;;4.81;69.30;96996.31;5032616;28;20639;-82
2022/02/26 07:17:27;;;;;;;5.57;3.30;;;;;;;4.85;69.37;96993.41;5034648;28;20206;-82
2022/02/26 07:19:53;;;;;;;7.27;3.53;;;;;;;4.73;68.86;96999.38;5033545;28;20198;-81
2022/02/26 07:22:20;;;;;;;6.93;3.77;;;;;;;4.53;71.79;97007.56;5047480;28;20960;-81
2022/02/26 07:24:46;;;;;;;8.27;4.20;;;;;;;4.58;70.66;97009.81;5033479;28;20222;-82
2022/02/26 07:27:16;;;;;;;8.43;4.10;;;;;;;4.58;70.26;97010.63;5034511;28;20240;-82
2022/02/26 07:29:43;;;;;;;10.80;4.90;;;;;;;4.58;72.41;97010.63;5034026;28;20205;-82
2022/02/26 07:32:11;;;;;;;30.43;24.67;;;;;;;4.59;70.63;97019.09;5033206;28;20237;-82
2022/02/26 07:34:38;;;;;;;20.10;13.20;;;;;;;4.59;70.88;97014.81;5032368;28;20237;-82
2022/02/26 07:37:04;;;;;;;7.30;5.33;;;;;;;4.53;71.38;97024.63;5032132;28;20190;-81
2022/02/26 07:39:31;;;;;;;6.57;4.20;;;;;;;4.48;71.09;97024.91;5032422;28;20268;-82
2022/02/26 07:41:57;;;;;;;9.93;4.00;;;;;;;4.54;70.70;97028.78;5032887;28;20214;-82
2022/02/26 07:44:24;;;;;;;9.63;4.33;;;;;;;4.62;70.33;97026.56;5032558;28;20244;-82
2022/02/26 07:46:50;;;;;;;8.07;3.87;;;;;;;4.59;69.89;97030.13;5032841;28;20218;-81
2022/02/26 07:49:18;;;;;;;4.60;3.37;;;;;;;4.64;70.22;97040.00;5032902;28;20256;-81
2022/02/26 07:51:44;;;;;;;6.50;3.40;;;;;;;4.75;69.19;97035.00;5032415;28;20538;-81
2022/02/26 07:54:11;;;;;;;6.33;3.90;;;;;;;4.84;69.17;97035.16;5032628;28;20230;-82
2022/02/26 07:56:37;;;;;;;5.13;3.53;;;;;;;4.75;70.73;97040.09;5030761;28;20248;-82
2022/02/26 07:59:04;;;;;;;6.83;4.00;;;;;;;4.85;69.94;97039.34;5033112;28;20198;-82
2022/02/26 08:01:35;;;;;;;6.53;3.37;;;;;;;4.91;68.62;97042.41;5032105;28;20229;-82
2022/02/26 08:04:02;;;;;;;7.00;3.80;;;;;;;4.97;68.96;97037.72;5006204;28;20237;-82
2022/02/26 08:06:33;;;;;;;6.53;4.07;;;;;;;4.93;69.61;97049.03;5026823;28;20233;-80
2022/02/26 08:09:02;;;;;;;6.67;4.27;;;;;;;4.97;70.95;97047.91;5030275;28;20715;-80
2022/02/26 08:11:31;;;;;;;46.90;33.93;;;;;;;4.99;69.48;97038.41;5028786;28;20201;-79
2022/02/26 08:14:00;;;;;;;17.30;10.93;;;;;;;5.01;68.81;97035.72;5029791;28;20226;-80
2022/02/26 08:16:28;;;;;;;8.47;5.30;;;;;;;5.04;68.84;97038.88;5030246;28;20246;-80
2022/02/26 08:18:55;;;;;;;8.73;4.17;;;;;;;5.08;68.70;97042.88;5030594;28;20605;-79
2022/02/26 08:21:21;;;;;;;6.80;4.10;;;;;;;5.14;68.77;97039.91;5029464;28;20760;-80
2022/02/26 08:23:49;;;;;;;7.73;4.90;;;;;;;5.07;68.52;97037.88;5029092;28;20226;-79
2022/02/26 08:26:16;;;;;;;7.87;4.57;;;;;;;5.10;68.56;97048.69;5030971;28;20222;-80
2022/02/26 08:28:43;;;;;;;9.50;4.70;;;;;;;5.17;68.44;97054.19;5030088;28;20194;-80
2022/02/26 08:31:09;;;;;;;9.50;4.50;;;;;;;5.28;67.88;97050.88;5030645;28;20569;-80
2022/02/26 08:33:36;;;;;;;7.50;4.80;;;;;;;5.22;67.28;97049.56;5029823;28;20241;-80
2022/02/26 08:36:03;;;;;;;8.33;5.10;;;;;;;5.28;70.77;97049.13;5030930;28;20218;-78
2022/02/26 08:38:29;;;;;;;7.67;3.93;;;;;;;5.95;77.37;97046.09;5029168;28;20206;-78
2022/02/26 08:40:57;;;;;;;30.00;20.73;;;;;;;6.45;69.59;97047.47;5029487;28;20205;-80
2022/02/26 08:43:24;;;;;;;12.63;7.30;;;;;;;6.42;64.17;97045.13;5029657;28;20705;-80
2022/02/26 08:45:52;;;;;;;9.50;5.00;;;;;;;6.44;64.54;97050.94;5029938;28;20222;-80
2022/02/26 08:48:19;;;;;;;7.27;4.77;;;;;;;6.44;64.17;97053.50;5031195;28;20221;-79
2022/02/26 08:50:46;;;;;;;9.60;4.57;;;;;;;6.21;63.88;97052.66;5034520;28;20701;-79
2022/02/26 08:53:14;;;;;;;5.53;4.20;;;;;;;6.16;64.78;97054.72;5025178;28;20723;-80
2022/02/26 08:55:40;;;;;;;10.57;4.47;;;;;;;6.39;69.94;97051.28;5033070;28;20222;-79
2022/02/26 08:58:08;;;;;;;8.07;4.07;;;;;;;6.71;69.10;97056.56;5032917;28;20202;-79
2022/02/26 09:00:35;;;;;;;5.10;4.10;;;;;;;6.89;62.67;97052.59;5032415;28;20661;-80
2022/02/26 09:03:04;;;;;;;6.53;4.37;;;;;;;6.68;59.77;97048.28;5030077;28;20234;-79
2022/02/26 09:05:32;;;;;;;6.57;3.90;;;;;;;6.45;60.43;97057.69;5032308;28;20214;-80
2022/02/26 09:07:58;;;;;;;7.40;4.23;;;;;;;6.37;61.08;97060.00;5033005;28;20198;-80
2022/02/26 09:10:25;;;;;;;6.57;4.03;;;;;;;6.29;60.99;97059.78;5032883;28;20263;-80
2022/02/26 09:12:51;;;;;;;8.03;3.97;;;;;;;6.23;61.40;97069.50;5030959;28;20229;-79
2022/02/26 09:15:19;;;;;;;8.00;4.20;;;;;;;6.24;61.61;97066.03;5032097;28;20222;-80
2022/02/26 09:17:46;;;;;;;6.70;3.80;;;;;;;6.16;60.00;97062.41;5031124;28;20216;-79
2022/02/26 09:20:13;;;;;;;7.47;3.47;;;;;;;6.20;60.34;97064.63;5026328;28;20229;-79
2022/02/26 09:22:39;;;;;;;5.73;3.67;;;;;;;6.28;59.53;97069.19;5032870;28;20696;-80
2022/02/26 09:25:09;;;;;;;7.73;3.43;;;;;;;6.18;59.75;97071.59;5028489;28;20245;-79
2022/02/26 09:27:35;;;;;;;5.13;3.03;;;;;;;6.16;59.57;97064.94;5026376;28;20198;-80
2022/02/26 09:30:02;;;;;;;6.63;3.20;;;;;;;6.31;59.68;97068.97;5031135;28;20287;-79
2022/02/26 09:32:31;;;;;;;7.87;3.30;;;;;;;6.50;59.11;97060.72;5028495;28;20660;-80
2022/02/26 09:34:57;;;;;;;9.57;3.20;;;;;;;6.71;58.88;97058.31;5029471;28;20313;-80
2022/02/26 09:37:24;;;;;;;8.20;3.60;;;;;;;6.68;57.81;97058.53;5030306;28;20568;-79
2022/02/26 09:39:58;;;;;;;7.00;3.37;;;;;;;6.70;57.88;97056.69;5031772;28;20198;-79
2022/02/26 09:42:26;;;;;;;8.03;3.00;;;;;;;6.44;57.08;97053.50;5031598;28;20631;-79
2022/02/26 09:44:52;;;;;;;5.77;2.90;;;;;;;6.29;57.27;97052.91;5032332;28;20565;-78
2022/02/26 09:47:19;;;;;;;6.57;3.00;;;;;;;6.48;58.18;97058.28;5031719;28;20198;-79
2022/02/26 09:49:46;;;;;;;6.17;3.47;;;;;;;6.63;57.31;97053.75;5029989;28;20206;-78
2022/02/26 09:52:13;;;;;;;8.67;3.60;;;;;;;6.52;55.38;97052.03;5030822;28;20194;-78
2022/02/26 09:54:39;;;;;;;5.17;2.90;;;;;;;6.44;55.61;97054.31;5031700;28;20222;-79
2022/02/26 09:57:06;;;;;;;4.87;3.10;;;;;;;6.55;56.76;97068.84;5031962;28;20630;-79
2022/02/26 09:59:32;;;;;;;4.90;2.90;;;;;;;6.69;55.12;97062.72;5031244;28;20724;-79
2022/02/26 10:02:01;;;;;;;4.63;2.80;;;;;;;6.71;55.02;97060.88;5032430;28;20723;-79
2022/02/26 10:04:28;;;;;;;3.87;2.60;;;;;;;7.01;53.87;97065.38;5031519;28;20580;-78
2022/02/26 10:07:10;;;;;;;6.13;3.40;;;;;;;7.70;51.43;97060.81;5030475;28;20218;-78
2022/02/26 10:09:41;;;;;;;8.93;2.90;;;;;;;8.16;51.46;97061.28;5031244;28;20210;-79
2022/02/26 10:12:25;;;;;;;9.50;5.43;;;;;;;8.30;51.14;97060.97;5030248;28;20206;-78
2022/02/26 10:14:54;;;;;;;10.03;5.87;;;;;;;8.01;48.61;97061.72;5030278;28;20221;-80
2022/02/26 10:17:28;;;;;;;8.83;4.00;;;;;;;7.88;50.25;97065.28;5030533;28;20230;-78
2022/02/26 10:20:05;;;;;;;8.73;2.90;;;;;;;7.56;49.69;97070.38;5025694;28;20197;-79
2022/02/26 10:22:35;;;;;;;5.70;2.37;;;;;;;7.65;48.59;97068.03;5030487;28;20915;-79
2022/02/26 10:25:07;;;;;;;4.33;1.90;;;;;;;8.20;45.78;97056.72;5032206;28;20217;-80
2022/02/26 10:27:39;;;;;;;7.23;2.80;;;;;;;8.64;46.09;97048.78;5031994;28;20202;-79
2022/02/26 10:30:06;;;;;;;5.40;2.37;;;;;;;9.12;47.09;97065.28;5031632;28;20221;-79
2022/02/26 10:32:33;;;;;;;4.53;2.13;;;;;;;9.37;46.13;97062.25;5031639;28;20917;-79
2022/02/26 10:35:00;;;;;;;4.07;2.07;;;;;;;9.01;46.29;97063.63;5031771;28;20194;-79
2022/02/26 10:37:26;;;;;;;6.03;2.00;;;;;;;8.73;46.14;97054.88;5031958;28;20228;-79
2022/02/26 10:39:56;;;;;;;5.87;2.30;;;;;;;8.47;46.13;97057.03;5032068;28;20245;-79
2022/02/26 10:42:25;;;;;;;3.23;1.70;;;;;;;8.01;45.73;97067.66;5031445;28;20222;-79
2022/02/26 10:45:08;;;;;;;5.70;1.93;;;;;;;7.65;45.24;97061.19;5031524;28;20217;-79
2022/02/26 10:47:36;;;;;;;3.03;1.70;;;;;;;7.41;46.34;97065.66;5032020;28;20206;-79
2022/02/26 10:50:15;;;;;;;2.40;1.40;;;;;;;7.35;47.17;97061.00;5031940;28;20218;-79
2022/02/26 10:52:55;;;;;;;4.73;2.10;;;;;;;7.15;46.44;97053.13;5031107;28;20218;-79
2022/02/26 10:55:49;;;;;;;3.60;1.87;;;;;;;6.90;47.29;97061.91;5031483;28;20252;-79
2022/02/26 10:58:19;;;;;;;4.37;1.80;;;;;;;6.94;47.74;97065.03;5028165;28;20206;-79
2022/02/26 11:00:45;;;;;;;31.87;22.20;;;;;;;6.95;47.89;97053.84;5032758;28;20198;-79
2022/02/26 11:03:12;;;;;;;29.83;20.63;;;;;;;6.95;48.22;97056.41;5031639;28;20253;-79
2022/02/26 11:05:38;;;;;;;9.50;6.43;;;;;;;7.03;48.21;97059.22;5031898;28;20705;-80
2022/02/26 11:08:06;;;;;;;4.10;2.27;;;;;;;6.99;47.66;97062.94;5032237;28;20605;-79
2022/02/26 11:10:36;;;;;;;5.13;2.23;;;;;;;6.93;47.26;97059.09;5030820;28;20194;-79
2022/02/26 11:13:03;;;;;;;2.70;1.53;;;;;;;6.82;47.97;97058.28;5030953;28;20222;-80
2022/02/26 11:15:32;;;;;;;4.93;1.60;;;;;;;6.78;47.81;97055.16;5031398;28;20210;-79
2022/02/26 11:17:59;;;;;;;3.87;1.97;;;;;;;6.82;48.13;97055.72;5031741;28;20202;-79
2022/02/26 11:20:27;;;;;;;7.87;1.90;;;;;;;6.88;47.66;97056.09;5031049;28;20205;-80
2022/02/26 11:22:56;;;;;;;4.43;1.83;;;;;;;6.91;47.15;97047.38;5044322;28;20700;-80
2022/02/26 11:25:23;;;;;;;4.93;1.70;;;;;;;7.00;47.62;97045.81;5051104;28;20225;-80
2022/02/26 11:27:51;;;;;;;3.90;1.60;;;;;;;7.19;47.41;97049.41;5030687;28;20190;-80
2022/02/26 11:30:20;;;;;;;4.23;1.80;;;;;;;7.46;47.48;97048.19;5031183;28;20525;-80
2022/02/26 11:32:48;;;;;;;4.80;1.40;;;;;;;7.59;46.31;97043.72;5029723;28;20201;-80
2022/02/26 11:35:17;;;;;;;6.07;1.70;;;;;;;7.68;44.86;97042.19;5031121;28;20221;-80
2022/02/26 11:37:43;;;;;;;6.00;1.80;;;;;;;7.77;44.72;97033.72;5030206;28;20194;-80
2022/02/26 11:40:15;;;;;;;2.97;1.50;;;;;;;7.70;44.84;97032.63;5031145;28;20198;-80
2022/02/26 11:42:42;;;;;;;19.37;13.57;;;;;;;7.78;43.61;97025.91;5030465;28;20217;-81